Time;durP1;ratioP1;P1;durP2;ratioP2;P2;SDS_P1;SDS_P2;PMS_P1;PMS_P2;Temp;Humidity;BMP_temperature;BMP_pressure;BME280_temperature;BME280_humidity;BME280_pressure;Samples;Min_cycle;Max_cycle;Signal;HPM_P1;HPM_P2
2021/09/08 00:00:38;;;;;;;12.60;11.50;;;;;;;12.39;100.00;98497.25;4957618;28;20212;-67
2021/09/08 00:03:06;;;;;;;13.17;11.97;;;;;;;12.46;100.00;98502.72;4970394;28;20378;-69
2021/09/08 00:05:35;;;;;;;13.60;12.40;;;;;;;12.50;100.00;98500.56;4995608;28;20209;-68
2021/09/08 00:08:03;;;;;;;14.73;12.23;;;;;;;12.56;100.00;98503.41;4997415;28;20474;-67
2021/09/08 00:10:32;;;;;;;13.87;12.50;;;;;;;12.33;100.00;98503.22;4976349;28;20209;-67
2021/09/08 00:13:02;;;;;;;12.77;11.57;;;;;;;12.27;100.00;98498.53;4986320;28;20891;-67
2021/09/08 00:15:30;;;;;;;13.17;11.97;;;;;;;12.33;100.00;98502.38;4952055;28;20213;-68
2021/09/08 00:17:59;;;;;;;12.80;11.53;;;;;;;12.28;100.00;98495.72;4980766;28;20292;-68
2021/09/08 00:20:27;;;;;;;12.10;11.07;;;;;;;12.19;100.00;98495.84;4988736;28;20216;-67
2021/09/08 00:22:55;;;;;;;12.50;11.30;;;;;;;12.20;100.00;98498.38;4982443;28;20201;-68
2021/09/08 00:25:23;;;;;;;13.03;11.67;;;;;;;12.14;100.00;98499.00;4987037;28;20201;-69
2021/09/08 00:27:51;;;;;;;12.50;11.47;;;;;;;12.07;100.00;98498.81;4972760;28;20229;-67
2021/09/08 00:30:20;;;;;;;14.53;12.47;;;;;;;12.06;100.00;98491.00;4983141;28;20692;-68
2021/09/08 00:32:49;;;;;;;13.80;12.40;;;;;;;12.00;100.00;98493.31;4957299;28;20243;-68
2021/09/08 00:35:17;;;;;;;14.33;13.13;;;;;;;12.07;100.00;98490.84;4991549;28;20200;-68
2021/09/08 00:37:45;;;;;;;13.03;11.73;;;;;;;11.98;100.00;98481.16;4939951;28;20236;-68
2021/09/08 00:40:13;;;;;;;12.93;11.73;;;;;;;11.94;100.00;98483.31;4992307;28;20212;-69
2021/09/08 00:42:41;;;;;;;12.07;11.03;;;;;;;11.99;100.00;98473.03;4985800;28;20852;-68
2021/09/08 00:45:09;;;;;;;14.17;12.73;;;;;;;11.92;100.00;98473.81;4977796;28;20208;-69
2021/09/08 00:47:39;;;;;;;11.67;10.47;;;;;;;11.83;100.00;98481.75;4997022;28;20236;-68
2021/09/08 00:50:09;;;;;;;12.40;11.30;;;;;;;11.83;100.00;98473.78;4985052;28;20830;-68
2021/09/08 00:52:38;;;;;;;13.27;11.93;;;;;;;11.76;100.00;98474.63;4982506;28;20600;-68
2021/09/08 00:55:07;;;;;;;13.00;11.87;;;;;;;11.73;100.00;98473.91;4977387;28;20402;-68
2021/09/08 00:57:36;;;;;;;12.70;11.60;;;;;;;11.75;100.00;98471.13;4994546;28;20338;-67
2021/09/08 01:00:05;;;;;;;12.67;11.67;;;;;;;11.76;100.00;98472.78;4983476;28;20418;-68
2021/09/08 01:02:33;;;;;;;13.20;11.90;;;;;;;11.71;100.00;98472.44;4991564;28;20201;-68
2021/09/08 01:05:02;;;;;;;13.13;11.77;;;;;;;11.68;100.00;98472.75;4977521;28;22957;-68
2021/09/08 01:07:31;;;;;;;12.87;11.83;;;;;;;11.65;100.00;98459.78;4997074;28;20735;-67
2021/09/08 01:09:59;;;;;;;13.27;12.17;;;;;;;11.58;100.00;98473.72;4960334;28;20240;-68
2021/09/08 01:12:27;;;;;;;13.40;12.03;;;;;;;11.59;100.00;98471.88;4985386;28;20204;-68
2021/09/08 01:14:55;;;;;;;12.93;11.87;;;;;;;11.65;100.00;98473.88;4991438;28;20212;-69
2021/09/08 01:17:23;;;;;;;13.63;12.27;;;;;;;11.64;100.00;98466.91;4987301;28;20578;-69
2021/09/08 01:19:50;;;;;;;14.23;12.93;;;;;;;11.61;100.00;98469.88;4986262;28;20432;-68
2021/09/08 01:22:22;;;;;;;13.73;12.50;;;;;;;11.52;100.00;98461.03;4977620;28;20636;-68
2021/09/08 01:24:51;;;;;;;12.93;11.73;;;;;;;11.56;100.00;98466.88;4951738;28;20942;-68
2021/09/08 01:27:19;;;;;;;13.60;11.50;;;;;;;11.60;100.00;98468.22;4986263;28;20316;-67
2021/09/08 01:29:47;;;;;;;13.10;11.77;;;;;;;11.49;100.00;98468.50;4990518;28;20233;-67
2021/09/08 01:32:14;;;;;;;13.27;11.87;;;;;;;11.46;100.00;98469.66;4987258;28;20466;-68
2021/09/08 01:34:42;;;;;;;12.67;11.37;;;;;;;11.51;100.00;98467.34;4989554;28;20403;-68
2021/09/08 01:37:11;;;;;;;13.10;11.90;;;;;;;11.44;100.00;98459.19;4978724;28;20236;-68
2021/09/08 01:39:39;;;;;;;13.13;11.77;;;;;;;11.39;100.00;98471.28;4972689;28;20209;-69
2021/09/08 01:42:08;;;;;;;13.70;12.37;;;;;;;11.34;100.00;98469.06;4960946;28;20681;-69
2021/09/08 01:44:36;;;;;;;12.97;11.80;;;;;;;11.33;100.00;98474.56;4961912;28;20521;-69
2021/09/08 01:47:04;;;;;;;14.17;12.97;;;;;;;11.25;100.00;98464.72;4997999;28;20320;-69
2021/09/08 01:49:32;;;;;;;14.27;12.73;;;;;;;11.15;100.00;98463.00;4996229;28;20319;-69
2021/09/08 01:52:00;;;;;;;13.00;11.80;;;;;;;11.18;100.00;98466.34;4992088;28;20648;-69
2021/09/08 01:54:27;;;;;;;13.87;12.57;;;;;;;11.09;100.00;98457.50;5001370;28;20204;-68
2021/09/08 01:56:55;;;;;;;13.43;12.20;;;;;;;11.09;100.00;98457.50;4957830;28;20232;-68
2021/09/08 01:59:25;;;;;;;13.53;12.27;;;;;;;11.10;100.00;98456.50;4990654;28;20863;-68
2021/09/08 02:01:53;;;;;;;13.60;12.47;;;;;;;11.04;100.00;98459.78;4988143;28;20201;-69
2021/09/08 02:04:22;;;;;;;13.77;12.50;;;;;;;10.97;100.00;98460.41;4987627;28;20346;-68
2021/09/08 02:06:51;;;;;;;14.00;12.67;;;;;;;11.00;100.00;98459.28;4990715;28;20987;-68
2021/09/08 02:09:20;;;;;;;13.53;12.23;;;;;;;11.00;100.00;98453.97;4965950;28;20235;-68
2021/09/08 02:11:49;;;;;;;12.90;11.50;;;;;;;11.01;100.00;98455.63;4952302;28;22044;-68
2021/09/08 02:14:17;;;;;;;12.77;11.67;;;;;;;10.93;100.00;98459.06;4987803;28;20401;-68
2021/09/08 02:16:46;;;;;;;12.57;11.47;;;;;;;10.90;100.00;98459.38;4985172;28;20439;-69
2021/09/08 02:19:14;;;;;;;12.80;11.23;;;;;;;10.86;100.00;98450.88;4988205;28;20208;-68
2021/09/08 02:21:42;;;;;;;12.93;11.73;;;;;;;10.88;100.00;98461.34;4989480;28;20288;-70
2021/09/08 02:24:10;;;;;;;12.50;11.30;;;;;;;10.86;100.00;98453.53;4979559;28;20208;-68
2021/09/08 02:26:38;;;;;;;12.70;11.50;;;;;;;10.83;100.00;98455.69;4988044;28;20247;-69
2021/09/08 02:29:05;;;;;;;12.07;11.03;;;;;;;10.82;100.00;98449.53;4952096;28;20720;-69
2021/09/08 02:31:34;;;;;;;12.57;11.37;;;;;;;10.76;100.00;98442.19;4981335;28;20418;-68
2021/09/08 02:34:03;;;;;;;12.83;11.20;;;;;;;10.69;100.00;98444.63;4992473;28;20359;-69
2021/09/08 02:36:31;;;;;;;12.90;11.60;;;;;;;10.68;100.00;98445.59;4986583;28;20225;-68
2021/09/08 02:39:00;;;;;;;12.03;11.03;;;;;;;10.64;100.00;98444.25;4978326;28;20209;-69
2021/09/08 02:41:29;;;;;;;12.93;11.63;;;;;;;10.61;100.00;98438.44;4984444;28;20280;-67
2021/09/08 02:43:57;;;;;;;11.97;10.80;;;;;;;10.67;100.00;98443.13;4994921;28;20483;-69
2021/09/08 02:46:25;;;;;;;12.20;11.10;;;;;;;10.66;100.00;98441.47;4998619;28;20245;-69
2021/09/08 02:48:53;;;;;;;12.33;11.23;;;;;;;10.59;100.00;98435.94;4955629;28;20412;-69
2021/09/08 02:51:23;;;;;;;13.10;11.87;;;;;;;10.56;100.00;98430.94;4994704;28;20204;-70
2021/09/08 02:53:50;;;;;;;12.07;10.97;;;;;;;10.62;100.00;98435.63;4988550;28;20212;-69
2021/09/08 02:56:18;;;;;;;13.23;12.03;;;;;;;10.59;100.00;98438.59;4991942;28;20212;-70
2021/09/08 02:58:46;;;;;;;12.83;11.83;;;;;;;10.47;100.00;98431.88;4972781;28;20228;-68
2021/09/08 03:01:14;;;;;;;12.70;11.50;;;;;;;10.42;100.00;98433.16;4985524;28;20639;-69
2021/09/08 03:03:43;;;;;;;12.43;11.33;;;;;;;10.39;100.00;98436.06;4947903;28;20216;-68
2021/09/08 03:06:11;;;;;;;12.23;11.13;;;;;;;10.34;100.00;98433.03;4987924;28;20697;-69
2021/09/08 03:08:40;;;;;;;13.43;12.37;;;;;;;10.35;100.00;98434.69;4991361;28;20631;-68
2021/09/08 03:11:08;;;;;;;13.07;11.77;;;;;;;10.30;100.00;98429.03;4972380;28;20250;-68
2021/09/08 03:13:36;;;;;;;13.37;12.20;;;;;;;10.24;100.00;98425.19;4957160;28;20205;-69
2021/09/08 03:16:04;;;;;;;13.33;12.13;;;;;;;10.24;100.00;98427.81;4987406;28;20419;-67
2021/09/08 03:18:32;;;;;;;13.13;11.93;;;;;;;10.35;100.00;98429.41;4956302;28;20223;-70
2021/09/08 03:21:00;;;;;;;12.30;11.20;;;;;;;10.26;100.00;98425.00;4980399;28;20748;-68
2021/09/08 03:23:28;;;;;;;12.20;11.00;;;;;;;10.17;100.00;98423.28;4985449;28;20840;-68
2021/09/08 03:25:57;;;;;;;13.20;11.80;;;;;;;10.18;100.00;98411.69;4962196;28;20707;-69
2021/09/08 03:28:25;;;;;;;13.00;11.83;;;;;;;10.15;100.00;98418.13;4981992;28;20209;-67
2021/09/08 03:30:53;;;;;;;12.70;11.50;;;;;;;10.07;100.00;98416.25;4984416;28;20224;-68
2021/09/08 03:33:21;;;;;;;13.27;11.97;;;;;;;10.08;100.00;98425.84;4984447;28;20201;-68
2021/09/08 03:35:49;;;;;;;11.90;10.87;;;;;;;10.09;100.00;98418.72;4949005;28;20240;-68
2021/09/08 03:38:17;;;;;;;13.10;11.93;;;;;;;10.08;100.00;98409.97;4978048;28;20212;-68
2021/09/08 03:40:45;;;;;;;11.27;10.33;;;;;;;10.10;100.00;98417.75;4990213;28;20201;-68
2021/09/08 03:43:14;;;;;;;12.20;11.20;;;;;;;10.13;100.00;98410.34;4985343;28;20556;-69
2021/09/08 03:45:42;;;;;;;11.70;10.60;;;;;;;10.04;100.00;98419.19;4980367;28;20204;-67
2021/09/08 03:48:10;;;;;;;11.23;10.33;;;;;;;9.96;100.00;98417.28;5000611;28;20278;-68
2021/09/08 03:50:38;;;;;;;11.27;10.37;;;;;;;9.94;100.00;98411.31;4961343;28;20560;-68
2021/09/08 03:53:06;;;;;;;12.27;11.20;;;;;;;9.94;100.00;98410.47;4990796;28;20231;-69
2021/09/08 03:55:34;;;;;;;12.10;11.10;;;;;;;9.87;100.00;98401.47;4989427;28;20209;-69
2021/09/08 03:58:02;;;;;;;11.50;10.50;;;;;;;9.87;100.00;98409.41;4984994;28;20513;-70
2021/09/08 04:00:32;;;;;;;12.47;11.40;;;;;;;9.92;100.00;98412.44;4991780;28;20213;-69
2021/09/08 04:03:00;;;;;;;11.87;10.73;;;;;;;9.86;100.00;98405.94;4982570;28;20405;-69
2021/09/08 04:05:28;;;;;;;12.00;10.87;;;;;;;9.87;100.00;98414.69;4949526;28;20259;-69
2021/09/08 04:07:56;;;;;;;10.90;9.90;;;;;;;9.90;100.00;98404.66;4966913;28;20374;-68
2021/09/08 04:10:24;;;;;;;11.03;9.97;;;;;;;9.90;100.00;98409.09;4988214;28;20303;-69
2021/09/08 04:12:52;;;;;;;11.17;10.17;;;;;;;9.80;100.00;98409.16;4966307;28;20827;-68
2021/09/08 04:15:21;;;;;;;11.67;10.63;;;;;;;9.69;100.00;98410.22;4982637;28;20469;-68
2021/09/08 04:17:50;;;;;;;12.33;11.23;;;;;;;9.66;100.00;98407.84;4981346;28;20220;-70
2021/09/08 04:20:18;;;;;;;11.57;10.53;;;;;;;9.60;100.00;98406.63;4979413;28;20708;-68
2021/09/08 04:22:46;;;;;;;11.10;10.10;;;;;;;9.61;100.00;98407.44;4949009;28;20266;-70
2021/09/08 04:25:14;;;;;;;12.03;10.90;;;;;;;9.54;100.00;98408.03;4983923;28;20211;-69
2021/09/08 04:27:42;;;;;;;12.30;11.23;;;;;;;9.49;100.00;98407.66;4983156;28;20259;-69
2021/09/08 04:30:11;;;;;;;12.30;11.07;;;;;;;9.56;100.00;98406.09;4974950;28;20808;-68
2021/09/08 04:32:39;;;;;;;10.67;9.67;;;;;;;9.54;100.00;98409.88;4981892;28;20278;-69
2021/09/08 04:35:09;;;;;;;12.03;10.90;;;;;;;9.48;100.00;98403.34;4984777;28;20212;-68
2021/09/08 04:37:38;;;;;;;11.87;10.77;;;;;;;9.60;100.00;98409.28;4948926;28;20232;-68
2021/09/08 04:40:07;;;;;;;12.47;11.37;;;;;;;9.62;100.00;98401.19;4978013;28;20700;-69
2021/09/08 04:42:35;;;;;;;11.60;10.50;;;;;;;9.59;100.00;98401.47;4989720;28;20693;-68
2021/09/08 04:45:03;;;;;;;12.10;11.00;;;;;;;9.62;100.00;98404.66;4978992;28;20228;-68
2021/09/08 04:47:32;;;;;;;14.50;10.83;;;;;;;9.57;100.00;98399.00;4980560;28;20235;-68
2021/09/08 04:50:00;;;;;;;11.47;10.47;;;;;;;9.55;100.00;98395.66;4986117;28;20795;-70
2021/09/08 04:52:32;;;;;;;11.53;10.53;;;;;;;9.51;100.00;98400.41;4946322;28;20261;-69
2021/09/08 04:55:03;;;;;;;11.43;10.33;;;;;;;9.46;100.00;98397.38;4955575;28;20448;-68
2021/09/08 04:57:31;;;;;;;12.63;11.50;;;;;;;9.44;100.00;98399.31;4991149;28;20275;-69
2021/09/08 04:59:59;;;;;;;12.13;11.03;;;;;;;9.53;100.00;98409.03;4976719;28;20236;-68
2021/09/08 05:02:27;;;;;;;12.43;11.13;;;;;;;9.49;100.00;98396.25;4988600;28;20201;-69
2021/09/08 05:04:56;;;;;;;11.80;10.70;;;;;;;9.48;100.00;98397.25;4970215;28;20391;-68
2021/09/08 05:07:23;;;;;;;11.60;10.50;;;;;;;9.68;100.00;98405.91;4981984;28;20229;-68
2021/09/08 05:09:53;;;;;;;11.97;10.90;;;;;;;9.91;100.00;98403.66;4950934;28;20212;-68
2021/09/08 05:12:21;;;;;;;10.50;9.60;;;;;;;9.90;100.00;98409.09;4981547;28;20290;-68
2021/09/08 05:14:49;;;;;;;11.23;10.33;;;;;;;9.83;100.00;98399.13;4982027;28;20227;-68
2021/09/08 05:17:17;;;;;;;14.10;12.37;;;;;;;9.87;100.00;98390.88;4984510;28;20243;-67
2021/09/08 05:19:45;;;;;;;11.67;10.57;;;;;;;10.06;100.00;98392.53;4966909;28;20412;-69
2021/09/08 05:22:13;;;;;;;15.37;12.00;;;;;;;10.18;100.00;98396.63;4985896;28;20300;-69
2021/09/08 05:24:40;;;;;;;11.97;10.87;;;;;;;10.17;100.00;98399.44;4952812;28;20535;-68
2021/09/08 05:27:10;;;;;;;11.80;10.80;;;;;;;10.05;100.00;98394.38;4989178;28;20220;-67
2021/09/08 05:29:38;;;;;;;13.37;12.10;;;;;;;10.13;100.00;98397.09;4988967;28;20447;-68
2021/09/08 05:32:06;;;;;;;13.37;12.17;;;;;;;10.26;100.00;98396.72;4992893;28;20550;-68
2021/09/08 05:34:34;;;;;;;12.97;11.67;;;;;;;10.33;100.00;98399.56;4983197;28;20665;-68
2021/09/08 05:37:02;;;;;;;12.00;10.83;;;;;;;10.32;100.00;98399.75;4973792;28;20239;-68
2021/09/08 05:39:30;;;;;;;12.17;10.83;;;;;;;10.32;100.00;98402.38;4991438;28;20205;-69
2021/09/08 05:41:58;;;;;;;12.63;11.37;;;;;;;10.38;100.00;98402.59;4978920;28;20293;-69
2021/09/08 05:44:28;;;;;;;12.97;11.73;;;;;;;10.49;100.00;98406.03;4987235;28;20220;-67
2021/09/08 05:46:57;;;;;;;12.53;11.30;;;;;;;10.57;100.00;98406.09;4990138;28;20229;-68
2021/09/08 05:49:25;;;;;;;11.30;10.40;;;;;;;10.59;100.00;98405.94;4996503;28;20205;-69
2021/09/08 05:51:53;;;;;;;12.90;11.53;;;;;;;10.68;100.00;98413.78;4982590;28;20252;-68
2021/09/08 05:54:21;;;;;;;12.80;11.50;;;;;;;10.85;100.00;98398.03;4994399;28;20212;-69
2021/09/08 05:56:49;;;;;;;12.53;11.33;;;;;;;10.78;100.00;98395.16;4960174;28;20240;-67
2021/09/08 05:59:17;;;;;;;12.33;11.23;;;;;;;10.89;100.00;98409.97;4998029;28;20326;-68
2021/09/08 06:01:47;;;;;;;13.17;11.60;;;;;;;10.97;100.00;98402.06;4986443;28;20360;-68
2021/09/08 06:04:15;;;;;;;13.30;12.00;;;;;;;11.01;100.00;98405.25;4985250;28;20469;-68
2021/09/08 06:06:43;;;;;;;12.40;11.30;;;;;;;11.08;100.00;98406.28;4980383;28;20229;-68
2021/09/08 06:09:11;;;;;;;12.87;11.53;;;;;;;11.15;100.00;98409.13;4975847;28;20252;-67
2021/09/08 06:11:39;;;;;;;13.83;12.53;;;;;;;11.25;100.00;98401.03;4958457;28;20458;-68
2021/09/08 06:14:10;;;;;;;14.33;12.97;;;;;;;11.37;100.00;98401.59;4995999;28;20703;-69
2021/09/08 06:16:38;;;;;;;13.87;12.33;;;;;;;11.48;100.00;98387.22;4992108;28;20224;-68
2021/09/08 06:19:08;;;;;;;14.43;12.93;;;;;;;11.63;100.00;98392.75;4989977;28;20673;-68
2021/09/08 06:21:36;;;;;;;14.67;13.17;;;;;;;11.73;100.00;98388.13;4979383;28;20889;-68
2021/09/08 06:24:04;;;;;;;13.90;12.60;;;;;;;11.82;100.00;98389.81;4962107;28;20212;-69
2021/09/08 06:26:32;;;;;;;15.13;13.33;;;;;;;11.90;100.00;98391.66;4978230;28;20315;-69
2021/09/08 06:29:01;;;;;;;15.50;13.90;;;;;;;12.09;100.00;98390.56;4952992;28;20306;-68
2021/09/08 06:31:29;;;;;;;15.13;13.70;;;;;;;12.22;100.00;98392.75;4973186;28;20237;-69
2021/09/08 06:33:57;;;;;;;15.30;12.33;;;;;;;12.34;100.00;98392.41;4987183;28;20282;-69
2021/09/08 06:36:27;;;;;;;15.27;13.67;;;;;;;12.49;100.00;98381.94;4984655;28;20328;-69
2021/09/08 06:38:54;;;;;;;16.00;13.93;;;;;;;12.66;100.00;98388.91;4963258;28;20844;-70
2021/09/08 06:41:22;;;;;;;14.37;12.87;;;;;;;12.90;100.00;98386.41;4993564;28;20232;-70
2021/09/08 06:43:50;;;;;;;15.43;13.90;;;;;;;12.97;100.00;98382.88;4961382;28;20209;-69
2021/09/08 06:46:19;;;;;;;16.07;14.53;;;;;;;13.11;100.00;98391.19;4973479;28;20831;-70
2021/09/08 06:48:47;;;;;;;14.00;12.50;;;;;;;13.26;100.00;98388.63;4991274;28;20283;-69
2021/09/08 06:51:16;;;;;;;15.37;13.73;;;;;;;13.40;100.00;98373.75;4995539;28;20227;-69
2021/09/08 06:53:45;;;;;;;15.83;12.43;;;;;;;13.59;100.00;98370.72;4983484;28;20720;-70
2021/09/08 06:56:13;;;;;;;17.07;13.60;;;;;;;13.74;100.00;98372.63;4992454;28;20474;-69
2021/09/08 06:58:41;;;;;;;15.53;13.93;;;;;;;13.89;100.00;98365.56;4959802;28;20212;-69
2021/09/08 07:01:09;;;;;;;15.23;12.93;;;;;;;13.97;100.00;98363.84;4945455;28;20348;-70
2021/09/08 07:03:37;;;;;;;14.97;13.37;;;;;;;14.12;100.00;98358.59;4980353;28;20621;-68
2021/09/08 07:06:06;;;;;;;14.47;12.97;;;;;;;14.26;100.00;98354.31;4987067;28;20216;-68
2021/09/08 07:08:33;;;;;;;15.43;13.87;;;;;;;14.40;100.00;98358.03;4979135;28;20556;-70
2021/09/08 07:11:03;;;;;;;15.57;13.90;;;;;;;14.51;100.00;98354.94;4984611;28;20217;-70
2021/09/08 07:13:31;;;;;;;17.00;15.20;;;;;;;14.79;100.00;98358.88;4979673;28;20556;-71
2021/09/08 07:15:59;;;;;;;15.67;13.13;;;;;;;14.90;100.00;98355.75;4987970;28;20287;-71
2021/09/08 07:18:27;;;;;;;16.97;14.93;;;;;;;15.03;100.00;98347.09;4956522;28;20491;-69
2021/09/08 07:20:55;;;;;;;17.73;14.37;;;;;;;15.22;100.00;98352.91;4985226;28;20208;-71
2021/09/08 07:23:23;;;;;;;16.40;14.40;;;;;;;15.42;100.00;98345.16;4972406;28;20197;-69
2021/09/08 07:25:51;;;;;;;21.30;14.73;;;;;;;15.59;100.00;98341.22;4991108;28;20803;-68
2021/09/08 07:28:20;;;;;;;16.20;14.63;;;;;;;15.76;100.00;98351.72;4959934;28;20208;-71
2021/09/08 07:30:53;;;;;;;17.23;14.33;;;;;;;15.92;100.00;98331.97;4992808;28;20205;-68
2021/09/08 07:33:22;;;;;;;17.93;13.57;;;;;;;16.06;100.00;98338.25;4949463;28;20688;-68
2021/09/08 07:35:50;;;;;;;16.57;13.73;;;;;;;16.24;100.00;98334.31;4982010;28;20224;-70
2021/09/08 07:38:19;;;;;;;17.93;13.90;;;;;;;16.31;100.00;98336.03;4982001;28;20216;-71
2021/09/08 07:40:47;;;;;;;17.90;14.27;;;;;;;16.53;100.00;98335.19;4978805;28;20201;-71
2021/09/08 07:43:15;;;;;;;14.83;13.43;;;;;;;16.60;100.00;98323.47;4993471;28;20213;-71
2021/09/08 07:45:48;;;;;;;14.13;12.80;;;;;;;16.71;100.00;98324.78;4975719;28;20236;-69
2021/09/08 07:48:18;;;;;;;14.90;13.40;;;;;;;16.88;100.00;98328.00;4958469;28;20296;-69
2021/09/08 07:50:46;;;;;;;15.47;13.97;;;;;;;16.99;100.00;98328.50;4988746;28;20201;-70
2021/09/08 07:53:14;;;;;;;17.43;13.93;;;;;;;17.21;100.00;98326.53;4992024;28;20239;-69
2021/09/08 07:55:42;;;;;;;15.53;13.83;;;;;;;17.03;100.00;98321.72;4978733;28;20232;-68
2021/09/08 07:58:10;;;;;;;19.00;14.67;;;;;;;17.23;100.00;98318.31;5000591;28;20250;-69
2021/09/08 08:00:38;;;;;;;14.87;13.30;;;;;;;17.36;100.00;98313.00;4985160;28;20746;-70
2021/09/08 08:03:08;;;;;;;16.50;14.80;;;;;;;17.51;100.00;98323.56;4952615;28;21118;-70
2021/09/08 08:05:36;;;;;;;15.50;14.10;;;;;;;17.56;100.00;98310.41;4981568;28;20470;-69
2021/09/08 08:08:05;;;;;;;18.37;14.27;;;;;;;17.69;100.00;98320.34;4991326;28;20243;-71
2021/09/08 08:10:33;;;;;;;16.60;14.70;;;;;;;17.74;100.00;98314.38;4972084;28;20217;-71
2021/09/08 08:13:01;;;;;;;15.90;13.97;;;;;;;17.99;100.00;98303.06;4980803;28;20532;-68
2021/09/08 08:15:29;;;;;;;16.60;14.90;;;;;;;17.96;100.00;98308.84;4981495;28;20208;-71
2021/09/08 08:17:57;;;;;;;19.50;14.70;;;;;;;18.09;100.00;98306.22;4951093;28;20251;-69
2021/09/08 08:20:26;;;;;;;16.93;12.93;;;;;;;18.28;100.00;98301.91;4984838;28;20385;-72
2021/09/08 08:22:55;;;;;;;16.43;14.77;;;;;;;18.42;100.00;98305.41;4984383;28;20917;-70
2021/09/08 08:25:27;;;;;;;15.07;13.67;;;;;;;18.37;100.00;98294.44;4983208;28;20419;-70
2021/09/08 08:27:56;;;;;;;15.97;14.27;;;;;;;18.33;100.00;98298.56;4976947;28;20462;-68
2021/09/08 08:30:25;;;;;;;13.97;12.37;;;;;;;18.54;100.00;98310.94;4987922;28;20732;-70
2021/09/08 08:32:53;;;;;;;14.10;12.67;;;;;;;18.77;100.00;98301.63;4967387;28;20616;-71
2021/09/08 08:35:21;;;;;;;13.60;12.27;;;;;;;18.78;100.00;98301.44;4955545;28;20921;-70
2021/09/08 08:37:51;;;;;;;12.33;10.90;;;;;;;19.07;100.00;98309.22;4971165;28;20248;-69
2021/09/08 08:40:20;;;;;;;14.43;13.10;;;;;;;19.23;100.00;98307.94;4994842;28;20201;-70
2021/09/08 08:42:49;;;;;;;12.47;11.27;;;;;;;19.32;100.00;98301.28;4969014;28;20664;-72
2021/09/08 08:45:17;;;;;;;13.50;12.30;;;;;;;19.20;100.00;98308.38;4997622;28;20209;-70
2021/09/08 08:47:45;;;;;;;14.97;13.47;;;;;;;19.36;100.00;98297.13;4987214;28;20220;-71
2021/09/08 08:50:16;;;;;;;13.60;12.37;;;;;;;19.36;100.00;98299.81;4957019;28;20231;-70
2021/09/08 08:52:44;;;;;;;12.47;11.33;;;;;;;19.31;100.00;98302.31;4987743;28;20649;-71
2021/09/08 08:55:13;;;;;;;12.33;11.07;;;;;;;19.45;100.00;98300.41;4996964;28;20319;-70
2021/09/08 08:57:41;;;;;;;15.83;12.00;;;;;;;19.59;100.00;98285.03;4974993;28;20240;-69
2021/09/08 09:00:10;;;;;;;13.87;12.50;;;;;;;19.81;100.00;98296.28;4979496;28;20205;-69
2021/09/08 09:02:39;;;;;;;14.57;12.20;;;;;;;19.62;100.00;98295.34;4983823;28;20236;-70
2021/09/08 09:05:08;;;;;;;13.07;11.87;;;;;;;19.71;100.00;98295.09;4947804;28;20437;-70
2021/09/08 09:07:38;;;;;;;12.97;11.77;;;;;;;19.93;100.00;98293.75;4987381;28;20581;-69
2021/09/08 09:10:08;;;;;;;14.20;11.33;;;;;;;19.95;100.00;98288.97;4922880;28;20601;-67
2021/09/08 09:12:40;;;;;;;13.03;11.83;;;;;;;20.04;100.00;98294.09;4984089;28;20660;-65
2021/09/08 09:15:11;;;;;;;15.30;11.70;;;;;;;20.14;100.00;98288.22;4969480;28;20215;-66
2021/09/08 09:17:40;;;;;;;15.07;11.97;;;;;;;20.46;100.00;98288.16;4978383;28;20228;-66
2021/09/08 09:20:11;;;;;;;12.47;11.17;;;;;;;20.48;100.00;98281.50;4983842;28;20434;-66
2021/09/08 09:22:40;;;;;;;12.40;11.27;;;;;;;20.40;100.00;98279.09;4986037;28;20588;-67
2021/09/08 09:25:10;;;;;;;12.10;10.90;;;;;;;20.53;100.00;98276.28;4951964;28;20213;-69
2021/09/08 09:27:44;;;;;;;14.27;12.77;;;;;;;20.79;100.00;98270.88;4989368;28;20225;-66
2021/09/08 09:30:15;;;;;;;12.40;11.27;;;;;;;20.71;100.00;98265.75;4974049;28;20227;-66
2021/09/08 09:32:45;;;;;;;11.47;10.57;;;;;;;21.02;100.00;98258.59;4978351;28;20216;-66
2021/09/08 09:35:15;;;;;;;12.03;10.93;;;;;;;21.09;100.00;98262.88;4960207;28;20408;-65
2021/09/08 09:37:45;;;;;;;11.90;10.70;;;;;;;21.24;100.00;98269.75;4998739;28;20339;-67
2021/09/08 09:40:14;;;;;;;10.93;9.83;;;;;;;21.18;100.00;98257.97;4946396;28;20224;-67
2021/09/08 09:42:45;;;;;;;11.53;10.57;;;;;;;21.20;100.00;98255.88;4995177;28;20678;-66
2021/09/08 09:45:14;;;;;;;12.20;10.50;;;;;;;21.28;100.00;98246.66;4987972;28;20315;-68
2021/09/08 09:47:44;;;;;;;10.43;9.60;;;;;;;21.45;100.00;98251.44;4982506;28;20232;-66
2021/09/08 09:50:15;;;;;;;10.63;9.63;;;;;;;21.67;100.00;98247.19;4985905;28;20975;-69
2021/09/08 09:52:45;;;;;;;9.90;9.10;;;;;;;21.94;100.00;98238.69;4996962;28;20205;-68
2021/09/08 09:55:13;;;;;;;10.83;9.73;;;;;;;21.75;100.00;98234.44;4961474;28;20411;-69
2021/09/08 09:57:41;;;;;;;11.03;10.03;;;;;;;21.85;100.00;98234.69;4986107;28;20716;-68
2021/09/08 10:00:12;;;;;;;10.07;9.17;;;;;;;21.96;100.00;98231.19;4991330;28;20393;-69
2021/09/08 10:02:41;;;;;;;9.43;8.63;;;;;;;22.07;100.00;98220.63;4979436;28;20220;-69
2021/09/08 10:05:10;;;;;;;11.90;8.60;;;;;;;22.25;100.00;98220.53;4977135;28;20355;-69
2021/09/08 10:07:39;;;;;;;8.07;7.40;;;;;;;22.44;98.70;98211.50;4992110;28;20229;-69
2021/09/08 10:10:13;;;;;;;8.77;8.13;;;;;;;22.64;85.33;98214.66;4954254;28;20229;-66
2021/09/08 10:12:45;;;;;;;9.47;8.40;;;;;;;22.73;83.54;98207.03;4987211;28;20209;-67
2021/09/08 10:15:16;;;;;;;8.53;7.77;;;;;;;22.82;80.90;98211.00;4982089;28;20581;-65
2021/09/08 10:17:45;;;;;;;9.10;8.40;;;;;;;22.79;84.51;98199.84;4973860;28;20238;-67
2021/09/08 10:20:17;;;;;;;8.67;7.80;;;;;;;22.95;86.63;98207.19;4971119;28;20506;-69
2021/09/08 10:22:46;;;;;;;8.53;7.90;;;;;;;23.04;88.47;98196.84;4987596;28;20208;-69
2021/09/08 10:25:15;;;;;;;8.30;7.70;;;;;;;23.07;78.41;98195.53;4960090;28;20238;-67
2021/09/08 10:27:44;;;;;;;8.10;7.40;;;;;;;23.25;77.66;98191.84;4992868;28;20295;-67
2021/09/08 10:30:35;;;;;;;7.97;6.73;;;;;;;23.43;72.99;98193.50;4987927;28;20205;-67
2021/09/08 10:33:05;;;;;;;8.60;7.80;;;;;;;23.56;70.80;98185.13;4978150;28;20209;-67
2021/09/08 10:35:38;;;;;;;8.23;7.53;;;;;;;23.72;70.28;98181.84;4985941;28;20208;-67
2021/09/08 10:38:14;;;;;;;8.60;7.90;;;;;;;23.93;68.08;98183.00;4962400;28;21240;-69
2021/09/08 10:40:43;;;;;;;8.30;7.40;;;;;;;24.02;67.49;98175.28;4957842;28;20648;-68
2021/09/08 10:43:11;;;;;;;7.90;7.20;;;;;;;24.21;65.12;98178.53;4982169;28;21748;-68
2021/09/08 10:45:51;;;;;;;8.23;7.60;;;;;;;24.45;64.42;98172.94;4998155;28;20212;-68
2021/09/08 10:48:35;;;;;;;8.93;8.23;;;;;;;24.18;63.55;98179.88;4993133;28;20287;-69
2021/09/08 10:51:03;;;;;;;8.33;7.63;;;;;;;24.27;60.47;98172.97;4979471;28;20879;-70
2021/09/08 10:53:32;;;;;;;8.30;7.50;;;;;;;24.78;61.92;98171.22;4983450;28;20214;-69
2021/09/08 10:56:02;;;;;;;10.90;7.73;;;;;;;24.63;61.67;98166.38;4965171;28;20298;-69
2021/09/08 10:58:59;;;;;;;9.37;8.47;;;;;;;25.04;60.41;98156.06;4995993;28;20456;-69
2021/09/08 11:01:29;;;;;;;8.60;7.80;;;;;;;24.94;58.53;98158.66;4989570;28;20212;-68
2021/09/08 11:03:58;;;;;;;8.40;7.60;;;;;;;24.67;61.87;98160.22;4985531;28;20574;-68
2021/09/08 11:06:38;;;;;;;8.50;7.80;;;;;;;24.91;57.80;98159.16;4981135;28;20826;-69
2021/09/08 11:09:08;;;;;;;8.83;8.13;;;;;;;24.93;60.99;98149.69;4978570;28;20534;-68
2021/09/08 11:11:49;;;;;;;9.03;8.13;;;;;;;25.21;57.38;98142.41;4954129;28;20228;-68
2021/09/08 11:14:17;;;;;;;9.57;7.47;;;;;;;24.96;58.92;98148.38;4984241;28;20250;-68
2021/09/08 11:16:46;;;;;;;7.90;7.10;;;;;;;25.15;58.33;98146.94;4998151;28;20232;-68
2021/09/08 11:19:15;;;;;;;8.60;7.93;;;;;;;25.25;58.22;98143.53;4933207;28;20221;-68
2021/09/08 11:21:43;;;;;;;8.57;7.83;;;;;;;25.02;61.19;98141.13;4989276;28;20205;-68